Un Karadeniz — TCTD3 — position and weather

sailwx.info

Track history (hours):
 
Tides and Currents Weather Stations Pressure Air Temp Water Temp Dewpoint Dewpoint Depression Visibility Wind Speed Wind Dir Waves Ship Positions

Un Karadeniz

Last reported at 2018-Feb-21 08:00 UTC. Time now 2018-Feb-21 09:51 UTC.
Position N 36°01' E 030°51'.

Length 193 m; draft 6.6 m.

Type: Ship (hazmat cat A). MMSI: 271002571.

Date/timePositionNaut miles runAvg speedWind from/ knotsBaromVisibWave heightAir tempDewpointWater temp
2018-Feb-21 08:00N 36°01' E 030°51'1619.0
2018-Feb-21 07:09N 36°02' E 030°31'319.4
2018-Feb-21 07:00N 36°02' E 030°28'59317.4
2018-Feb-19 20:52N 39°50' E 018°54'719.8
2018-Feb-19 20:30N 39°56' E 018°49'36019.8
2018-Feb-19 02:17N 44°33' E 013°38'619.6
2018-Feb-19 01:59N 44°38' E 013°34'1019.7
2018-Feb-19 01:30N 44°46' E 013°27'1020.0
2018-Feb-19 01:00N 44°54' E 013°19'1019.9
2018-Feb-19 00:31N 45°03' E 013°12'1019.6
2018-Feb-19 00:01N 45°11' E 013°05'1019.3
2018-Feb-18 23:31N 45°21' E 013°03'1019.4
2018-Feb-18 23:01N 45°28' E 013°12'1019.6
2018-Feb-18 22:30N 45°34' E 013°23'1019.4
2018-Feb-18 22:01N 45°38' E 013°36'710.8
2018-Feb-18 21:24N 45°39' E 013°45'0 0.0
2018-Feb-18 21:00N 45°39' E 013°45'0 0.0
2018-Feb-18 20:30N 45°39' E 013°45'0 0.0
2018-Feb-18 20:00N 45°39' E 013°45'0 0.0
2018-Feb-18 19:29N 45°39' E 013°45'0 0.0
2018-Feb-18 18:59N 45°39' E 013°45'0 0.0
2018-Feb-18 18:29N 45°39' E 013°45'0 0.0
2018-Feb-18 17:59N 45°39' E 013°45'0 0.0
2018-Feb-18 17:29N 45°39' E 013°45'0 0.0
2018-Feb-18 16:58N 45°39' E 013°45'0 0.0
2018-Feb-18 16:28N 45°39' E 013°45'0 0.0
2018-Feb-18 15:58N 45°39' E 013°45'0 0.0
2018-Feb-18 15:28N 45°39' E 013°45'0 0.0
2018-Feb-18 14:57N 45°39' E 013°45'0 0.0
2018-Feb-18 14:24N 45°39' E 013°45'0 0.0
2018-Feb-18 14:00N 45°39' E 013°45'0 0.0
2018-Feb-18 13:29N 45°39' E 013°45'0 0.0
2018-Feb-18 12:59N 45°39' E 013°45'0 0.0
2018-Feb-18 12:29N 45°39' E 013°45'0 0.0
2018-Feb-18 11:58N 45°39' E 013°45'0 0.0
2018-Feb-18 11:30N 45°39' E 013°45'0 0.0
2018-Feb-18 11:00N 45°39' E 013°45'0 0.0
2018-Feb-18 10:26N 45°39' E 013°45'0 0.0
2018-Feb-18 10:00N 45°39' E 013°45'0 0.0
2018-Feb-18 09:26N 45°39' E 013°45'0 0.0
2018-Feb-18 08:53N 45°39' E 013°45'0 0.0
2018-Feb-18 08:30N 45°39' E 013°45'0 0.0
2018-Feb-18 08:00N 45°39' E 013°45'2 3.4
2018-Feb-18 07:30N 45°39' E 013°43'714.7
2018-Feb-18 07:00N 45°36' E 013°33'918.2
2018-Feb-18 06:30N 45°31' E 013°22'713.8
2018-Feb-18 06:00N 45°26' E 013°16'917.7
2018-Feb-18 05:30N 45°17' E 013°14'1019.1
2018-Feb-18 05:00N 45°08' E 013°18'1019.2
2018-Feb-18 04:30N 44°59' E 013°22'1019.4
2018-Feb-18 04:00N 44°50' E 013°29'1019.5
2018-Feb-18 03:30N 44°42' E 013°36'1019.6
2018-Feb-18 02:59N 44°34' E 013°44'1119.5
2018-Feb-18 02:27N 44°25' E 013°52'35219.5
2018-Feb-17 08:23N 39°58' E 019°02'1219.8
2018-Feb-17 07:46N 39°47' E 019°09'57917.3
2018-Feb-15 22:22N 36°07' E 030°29'5 0.1
2018-Feb-14 06:06N 36°03' E 030°33'220.6
2018-Feb-14 06:00N 36°03' E 030°31'59318.0
2018-Feb-12 21:01N 39°49' E 018°55'019.9
2018-Feb-12 21:00N 39°49' E 018°55'1020.0
2018-Feb-12 20:30N 39°57' E 018°48'35920.2
2018-Feb-12 02:46N 44°34' E 013°38'519.9
2018-Feb-12 02:30N 44°38' E 013°34'1020.3
2018-Feb-12 02:00N 44°47' E 013°26'1020.1
2018-Feb-12 01:31N 44°55' E 013°19'1020.1
2018-Feb-12 01:00N 45°04' E 013°11'1019.9
2018-Feb-12 00:30N 45°13' E 013°05'1019.4
2018-Feb-12 00:00N 45°22' E 013°04'1020.0
2018-Feb-11 23:30N 45°29' E 013°14'1019.4
2018-Feb-11 23:00N 45°35' E 013°25'1019.1
2018-Feb-11 22:30N 45°39' E 013°38'5 9.5
2018-Feb-11 21:59N 45°39' E 013°45'0 0.0
2018-Feb-11 21:29N 45°39' E 013°45'0 0.0
2018-Feb-11 20:59N 45°39' E 013°45'0 0.0
2018-Feb-11 20:29N 45°39' E 013°45'0 0.0
2018-Feb-11 19:58N 45°39' E 013°45'0 0.0
2018-Feb-11 19:28N 45°39' E 013°45'0 0.0
2018-Feb-11 18:58N 45°39' E 013°45'0 0.0
2018-Feb-11 18:30N 45°39' E 013°45'0 0.0
2018-Feb-11 18:00N 45°39' E 013°45'0 0.0
2018-Feb-11 17:30N 45°39' E 013°45'0 0.0
2018-Feb-11 17:00N 45°39' E 013°45'0 0.0
2018-Feb-11 16:26N 45°39' E 013°45'0 0.0
2018-Feb-11 15:59N 45°39' E 013°45'0 0.0
2018-Feb-11 15:28N 45°39' E 013°45'0 0.0
2018-Feb-11 14:58N 45°39' E 013°45'0 0.0
2018-Feb-11 14:27N 45°39' E 013°45'0 0.0
2018-Feb-11 14:00N 45°39' E 013°45'0 0.0
2018-Feb-11 13:29N 45°39' E 013°45'0 0.0
2018-Feb-11 13:00N 45°39' E 013°45'0 0.0
2018-Feb-11 12:30N 45°39' E 013°45'0 0.0
2018-Feb-11 12:00N 45°39' E 013°45'3 6.0
2018-Feb-11 11:30N 45°39' E 013°41'816.5
2018-Feb-11 11:00N 45°34' E 013°31'918.2
2018-Feb-11 10:30N 45°29' E 013°20'918.3
2018-Feb-11 10:00N 45°21' E 013°13'1019.1
2018-Feb-11 09:30N 45°12' E 013°16'1019.4
2018-Feb-11 09:00N 45°03' E 013°21'1019.6
2018-Feb-11 08:30N 44°54' E 013°26'1019.7
2018-Feb-11 08:00N 44°46' E 013°34'  
Track history (hours):
 
Tides and Currents Weather Stations Pressure Air Temp Water Temp Dewpoint Dewpoint Depression Visibility Wind Speed Wind Dir Waves Ship Positions

Un Karadeniz

Last reported at 2018-Feb-21 08:00 UTC. Time now 2018-Feb-21 09:51 UTC.
Position N 36°01' E 030°51'.

Length 193 m; draft 6.6 m.

Type: Ship (hazmat cat A). MMSI: 271002571.

Date/timePositionNaut miles runAvg speedWind from/ knotsBaromVisibWave heightAir tempDewpointWater temp
2018-Feb-21 08:00N 36°01' E 030°51'1619.0
2018-Feb-21 07:09N 36°02' E 030°31'319.4
2018-Feb-21 07:00N 36°02' E 030°28'59317.4
2018-Feb-19 20:52N 39°50' E 018°54'719.8
2018-Feb-19 20:30N 39°56' E 018°49'36019.8
2018-Feb-19 02:17N 44°33' E 013°38'619.6
2018-Feb-19 01:59N 44°38' E 013°34'1019.7
2018-Feb-19 01:30N 44°46' E 013°27'1020.0
2018-Feb-19 01:00N 44°54' E 013°19'1019.9
2018-Feb-19 00:31N 45°03' E 013°12'1019.6
2018-Feb-19 00:01N 45°11' E 013°05'1019.3
2018-Feb-18 23:31N 45°21' E 013°03'1019.4
2018-Feb-18 23:01N 45°28' E 013°12'1019.6
2018-Feb-18 22:30N 45°34' E 013°23'1019.4
2018-Feb-18 22:01N 45°38' E 013°36'710.8
2018-Feb-18 21:24N 45°39' E 013°45'0 0.0
2018-Feb-18 21:00N 45°39' E 013°45'0 0.0
2018-Feb-18 20:30N 45°39' E 013°45'0 0.0
2018-Feb-18 20:00N 45°39' E 013°45'0 0.0
2018-Feb-18 19:29N 45°39' E 013°45'0 0.0
2018-Feb-18 18:59N 45°39' E 013°45'0 0.0
2018-Feb-18 18:29N 45°39' E 013°45'0 0.0
2018-Feb-18 17:59N 45°39' E 013°45'0 0.0
2018-Feb-18 17:29N 45°39' E 013°45'0 0.0
2018-Feb-18 16:58N 45°39' E 013°45'0 0.0
2018-Feb-18 16:28N 45°39' E 013°45'0 0.0
2018-Feb-18 15:58N 45°39' E 013°45'0 0.0
2018-Feb-18 15:28N 45°39' E 013°45'0 0.0
2018-Feb-18 14:57N 45°39' E 013°45'0 0.0
2018-Feb-18 14:24N 45°39' E 013°45'0 0.0
2018-Feb-18 14:00N 45°39' E 013°45'0 0.0
2018-Feb-18 13:29N 45°39' E 013°45'0 0.0
2018-Feb-18 12:59N 45°39' E 013°45'0 0.0
2018-Feb-18 12:29N 45°39' E 013°45'0 0.0
2018-Feb-18 11:58N 45°39' E 013°45'0 0.0
2018-Feb-18 11:30N 45°39' E 013°45'0 0.0
2018-Feb-18 11:00N 45°39' E 013°45'0 0.0
2018-Feb-18 10:26N 45°39' E 013°45'0 0.0
2018-Feb-18 10:00N 45°39' E 013°45'0 0.0
2018-Feb-18 09:26N 45°39' E 013°45'0 0.0
2018-Feb-18 08:53N 45°39' E 013°45'0 0.0
2018-Feb-18 08:30N 45°39' E 013°45'0 0.0
2018-Feb-18 08:00N 45°39' E 013°45'2 3.4
2018-Feb-18 07:30N 45°39' E 013°43'714.7
2018-Feb-18 07:00N 45°36' E 013°33'918.2
2018-Feb-18 06:30N 45°31' E 013°22'713.8
2018-Feb-18 06:00N 45°26' E 013°16'917.7
2018-Feb-18 05:30N 45°17' E 013°14'1019.1
2018-Feb-18 05:00N 45°08' E 013°18'1019.2
2018-Feb-18 04:30N 44°59' E 013°22'1019.4
2018-Feb-18 04:00N 44°50' E 013°29'1019.5
2018-Feb-18 03:30N 44°42' E 013°36'1019.6
2018-Feb-18 02:59N 44°34' E 013°44'1119.5
2018-Feb-18 02:27N 44°25' E 013°52'35219.5
2018-Feb-17 08:23N 39°58' E 019°02'1219.8
2018-Feb-17 07:46N 39°47' E 019°09'57917.3
2018-Feb-15 22:22N 36°07' E 030°29'5 0.1
2018-Feb-14 06:06N 36°03' E 030°33'220.6
2018-Feb-14 06:00N 36°03' E 030°31'59318.0
2018-Feb-12 21:01N 39°49' E 018°55'019.9
2018-Feb-12 21:00N 39°49' E 018°55'1020.0
2018-Feb-12 20:30N 39°57' E 018°48'35920.2
2018-Feb-12 02:46N 44°34' E 013°38'519.9
2018-Feb-12 02:30N 44°38' E 013°34'1020.3
2018-Feb-12 02:00N 44°47' E 013°26'1020.1
2018-Feb-12 01:31N 44°55' E 013°19'1020.1
2018-Feb-12 01:00N 45°04' E 013°11'1019.9
2018-Feb-12 00:30N 45°13' E 013°05'1019.4
2018-Feb-12 00:00N 45°22' E 013°04'1020.0
2018-Feb-11 23:30N 45°29' E 013°14'1019.4
2018-Feb-11 23:00N 45°35' E 013°25'1019.1
2018-Feb-11 22:30N 45°39' E 013°38'5 9.5
2018-Feb-11 21:59N 45°39' E 013°45'0 0.0
2018-Feb-11 21:29N 45°39' E 013°45'0 0.0
2018-Feb-11 20:59N 45°39' E 013°45'0 0.0
2018-Feb-11 20:29N 45°39' E 013°45'0 0.0
2018-Feb-11 19:58N 45°39' E 013°45'0 0.0
2018-Feb-11 19:28N 45°39' E 013°45'0 0.0
2018-Feb-11 18:58N 45°39' E 013°45'0 0.0
2018-Feb-11 18:30N 45°39' E 013°45'0 0.0
2018-Feb-11 18:00N 45°39' E 013°45'0 0.0
2018-Feb-11 17:30N 45°39' E 013°45'0 0.0
2018-Feb-11 17:00N 45°39' E 013°45'0 0.0
2018-Feb-11 16:26N 45°39' E 013°45'0 0.0
2018-Feb-11 15:59N 45°39' E 013°45'0 0.0
2018-Feb-11 15:28N 45°39' E 013°45'0 0.0
2018-Feb-11 14:58N 45°39' E 013°45'0 0.0
2018-Feb-11 14:27N 45°39' E 013°45'0 0.0
2018-Feb-11 14:00N 45°39' E 013°45'0 0.0
2018-Feb-11 13:29N 45°39' E 013°45'0 0.0
2018-Feb-11 13:00N 45°39' E 013°45'0 0.0
2018-Feb-11 12:30N 45°39' E 013°45'0 0.0
2018-Feb-11 12:00N 45°39' E 013°45'3 6.0
2018-Feb-11 11:30N 45°39' E 013°41'816.5
2018-Feb-11 11:00N 45°34' E 013°31'918.2
2018-Feb-11 10:30N 45°29' E 013°20'918.3
2018-Feb-11 10:00N 45°21' E 013°13'1019.1
2018-Feb-11 09:30N 45°12' E 013°16'1019.4
2018-Feb-11 09:00N 45°03' E 013°21'1019.6
2018-Feb-11 08:30N 44°54' E 013°26'1019.7
2018-Feb-11 08:00N 44°46' E 013°34'  

Dump ship's entire track history